Time,TemperatureF,DewpointF,PressureIn,WindDirection,WindDirectionDegrees,WindSpeedMPH,WindSpeedGustMPH,Humidity,HourlyPrecipIn,Conditions,Clouds,dailyrainin,SoftwareType,DateUTC
2013-04-12 00:00:00,38.0,31.1,30.09,North,8,0.0,0.0,76,0.01,,,-99.99,VWS V12.06,2013-04-12 04:00:00,
2013-04-12 00:15:00,37.5,31.9,30.09,North,8,0.0,0.0,80,0.01,,,-99.99,VWS V12.06,2013-04-12 04:15:00,
2013-04-12 00:30:00,37.0,32.0,30.09,North,10,0.0,0.0,82,0.01,,,-99.99,VWS V12.06,2013-04-12 04:30:00,
2013-04-12 00:45:00,36.9,32.5,30.09,North,10,0.0,0.0,84,0.01,,,-99.99,VWS V12.06,2013-04-12 04:45:00,
2013-04-12 01:00:00,36.8,32.1,30.09,North,10,2.0,2.0,83,0.01,,,-99.99,VWS V12.06,2013-04-12 05:00:00,
2013-04-12 01:15:00,36.9,32.2,30.09,North,10,0.0,0.0,83,0.00,,,-99.99,VWS V12.06,2013-04-12 05:15:00,
2013-04-12 01:30:00,36.9,32.2,30.07,NE,47,0.0,3.0,83,0.00,,,-99.99,VWS V12.06,2013-04-12 05:30:00,
2013-04-12 01:45:00,36.6,32.5,30.08,NE,47,0.0,1.0,85,0.03,,,-99.99,VWS V12.06,2013-04-12 05:45:00,
2013-04-12 02:00:00,36.3,32.8,30.08,NE,47,0.0,1.0,87,0.05,,,-99.99,VWS V12.06,2013-04-12 06:00:00,
2013-04-12 02:15:00,36.3,33.4,30.08,NE,47,0.0,0.0,89,0.06,,,-99.99,VWS V12.06,2013-04-12 06:15:00,
2013-04-12 02:30:00,36.2,33.6,30.08,NE,47,0.0,0.0,90,0.06,,,-99.99,VWS V12.06,2013-04-12 06:30:00,
2013-04-12 02:45:00,36.2,33.8,30.07,NE,47,0.0,0.0,91,0.06,,,-99.99,VWS V12.06,2013-04-12 06:45:00,
2013-04-12 03:00:00,36.2,33.8,30.08,NE,47,0.0,1.0,91,0.06,,,-99.99,VWS V12.06,2013-04-12 07:00:00,
2013-04-12 03:15:00,35.9,33.8,30.09,NE,47,0.0,0.0,92,0.01,,,-99.99,VWS V12.06,2013-04-12 07:15:00,
2013-04-12 03:30:00,35.9,33.8,30.08,NE,47,0.0,2.0,92,0.01,,,-99.99,VWS V12.06,2013-04-12 07:30:00,
2013-04-12 03:45:00,35.9,33.8,30.08,NE,47,0.0,2.0,92,0.01,,,-99.99,VWS V12.06,2013-04-12 07:45:00,
2013-04-12 04:00:00,35.9,33.8,30.08,NE,47,0.0,0.0,92,0.01,,,-99.99,VWS V12.06,2013-04-12 08:00:00,
2013-04-12 04:15:00,35.9,33.8,30.08,NE,47,2.0,4.0,92,0.01,,,-99.99,VWS V12.06,2013-04-12 08:15:00,
2013-04-12 04:30:00,35.9,34.1,30.08,NE,47,0.0,3.0,93,0.00,,,-99.99,VWS V12.06,2013-04-12 08:30:00,
2013-04-12 04:45:00,35.9,34.1,30.07,NE,48,1.0,3.0,93,0.00,,,-99.99,VWS V12.06,2013-04-12 08:45:00,
2013-04-12 05:00:00,36.0,34.2,30.07,NE,52,0.0,2.0,93,0.00,,,-99.99,VWS V12.06,2013-04-12 09:00:00,
2013-04-12 05:15:00,36.2,34.4,30.07,ENE,78,2.0,9.0,93,0.00,,,-99.99,VWS V12.06,2013-04-12 09:15:00,
2013-04-12 05:30:00,36.2,34.4,30.07,East,99,0.0,4.0,93,0.00,,,-99.99,VWS V12.06,2013-04-12 09:30:00,
2013-04-12 05:45:00,36.5,34.7,30.07,East,96,0.0,3.0,93,0.00,,,-99.99,VWS V12.06,2013-04-12 09:45:00,
2013-04-12 06:00:00,36.6,35.0,30.07,NE,45,0.0,7.0,94,0.00,,,-99.99,VWS V12.06,2013-04-12 10:00:00,
2013-04-12 06:15:00,36.6,35.0,30.08,ENE,68,1.0,7.0,94,0.00,,,-99.99,VWS V12.06,2013-04-12 10:15:00,
2013-04-12 06:30:00,36.6,35.0,30.08,East,97,2.0,6.0,94,0.00,,,-99.99,VWS V12.06,2013-04-12 10:30:00,
2013-04-12 06:45:00,36.8,35.5,30.08,East,90,3.0,6.0,95,0.00,,,-99.99,VWS V12.06,2013-04-12 10:45:00,
2013-04-12 07:00:00,35.8,34.2,30.07,ENE,68,0.0,7.0,94,0.00,,,-99.99,VWS V12.06,2013-04-12 11:00:00,
2013-04-12 07:15:00,34.7,33.4,30.08,ENE,73,6.0,7.0,95,0.00,,,-99.99,VWS V12.06,2013-04-12 11:15:00,
2013-04-12 07:30:00,34.3,33.0,30.08,NE,44,6.0,11.0,95,0.00,,,-99.99,VWS V12.06,2013-04-12 11:30:00,
2013-04-12 07:45:00,34.0,32.7,30.08,ENE,64,5.0,7.0,95,0.00,,,-99.99,VWS V12.06,2013-04-12 11:45:00,
2013-04-12 08:00:00,33.7,32.4,30.08,NE,56,1.0,8.0,95,0.00,,,-99.99,VWS V12.06,2013-04-12 12:00:00,
2013-04-12 08:15:00,33.8,32.5,30.07,NE,54,3.0,8.0,95,0.01,,,-99.99,VWS V12.06,2013-04-12 12:15:00,
2013-04-12 08:30:00,33.8,32.8,30.06,ESE,110,2.0,10.0,96,0.01,,,-99.99,VWS V12.06,2013-04-12 12:30:00,
2013-04-12 08:45:00,34.3,33.3,30.07,East,100,2.0,10.0,96,0.01,,,-99.99,VWS V12.06,2013-04-12 12:45:00,
2013-04-12 09:00:00,34.6,33.6,30.05,East,90,3.0,7.0,96,0.01,,,-99.99,VWS V12.06,2013-04-12 13:00:00,
2013-04-12 09:15:00,34.9,33.6,30.05,ENE,78,1.0,6.0,95,0.01,,,-99.99,VWS V12.06,2013-04-12 13:15:00,
2013-04-12 09:30:00,35.0,33.7,30.03,ESE,103,2.0,6.0,95,0.00,,,-99.99,VWS V12.06,2013-04-12 13:30:00,
2013-04-12 09:45:00,35.2,33.1,30.02,East,96,3.0,8.0,92,0.00,,,-99.99,VWS V12.06,2013-04-12 13:45:00,
2013-04-12 10:00:00,35.2,32.0,30.02,ESE,112,5.0,7.0,88,0.00,,,-99.99,VWS V12.06,2013-04-12 14:00:00,
2013-04-12 10:15:00,35.5,32.0,30.02,East,93,6.0,14.0,87,0.00,,,-99.99,VWS V12.06,2013-04-12 14:15:00,
2013-04-12 10:30:00,35.3,32.1,30.00,NE,54,10.0,10.0,88,0.01,,,-99.99,VWS V12.06,2013-04-12 14:30:00,
2013-04-12 10:45:00,35.3,32.4,29.99,East,82,3.0,11.0,89,0.01,,,-99.99,VWS V12.06,2013-04-12 14:45:00,
2013-04-12 11:00:00,35.5,32.6,29.99,ESE,114,5.0,8.0,89,0.01,,,-99.99,VWS V12.06,2013-04-12 15:00:00,
2013-04-12 11:15:00,35.3,32.4,30.00,East,96,3.0,7.0,89,0.03,,,-99.99,VWS V12.06,2013-04-12 15:15:00,
2013-04-12 11:30:00,35.5,33.1,29.98,ESE,102,3.0,5.0,91,0.05,,,-99.99,VWS V12.06,2013-04-12 15:30:00,
2013-04-12 11:45:00,35.5,33.4,29.98,SSE,164,0.0,7.0,92,0.05,,,-99.99,VWS V12.06,2013-04-12 15:45:00,
2013-04-12 12:00:00,35.5,33.7,29.99,East,92,3.0,10.0,93,0.09,,,-99.99,VWS V12.06,2013-04-12 16:00:00,
2013-04-12 12:15:00,35.5,33.7,29.95,East,79,11.0,11.0,93,0.13,,,-99.99,VWS V12.06,2013-04-12 16:15:00,
2013-04-12 12:30:00,35.3,33.8,29.97,ESE,112,5.0,7.0,94,0.12,,,-99.99,VWS V12.06,2013-04-12 16:30:00,
2013-04-12 12:45:00,35.5,34.0,29.97,ENE,73,6.0,7.0,94,0.14,,,-99.99,VWS V12.06,2013-04-12 16:45:00,
2013-04-12 13:00:00,35.3,33.8,29.97,East,96,5.0,6.0,94,0.15,,,-99.99,VWS V12.06,2013-04-12 17:00:00,
2013-04-12 13:15:00,35.6,34.3,29.95,East,99,9.0,11.0,95,0.13,,,-99.99,VWS V12.06,2013-04-12 17:15:00,
2013-04-12 13:30:00,35.3,33.8,29.94,East,89,8.0,10.0,94,0.15,,,-99.99,VWS V12.06,2013-04-12 17:30:00,
2013-04-12 13:45:00,35.3,33.2,29.94,East,79,6.0,12.0,92,0.08,,,-99.99,VWS V12.06,2013-04-12 17:45:00,
2013-04-12 14:15:00,35.2,33.1,29.94,SE,140,5.0,6.0,92,0.06,,,-99.99,VWS V12.06,2013-04-12 18:15:00,
2013-04-12 15:30:00,34.7,33.4,29.88,ENE,64,10.0,10.0,95,0.02,,,-99.99,VWS V12.06,2013-04-12 19:30:00,
2013-04-12 15:45:00,34.9,33.6,29.87,ENE,66,6.0,6.0,95,0.02,,,-99.99,VWS V12.06,2013-04-12 19:45:00,
2013-04-12 16:00:00,35.2,33.9,29.86,East,89,7.0,7.0,95,0.02,,,-99.99,VWS V12.06,2013-04-12 20:00:00,
2013-04-12 16:15:00,35.0,33.7,29.86,ENE,73,8.0,10.0,95,0.00,,,-99.99,VWS V12.06,2013-04-12 20:15:00,
2013-04-12 16:30:00,35.2,33.9,29.85,ESE,106,3.0,7.0,95,0.00,,,-99.99,VWS V12.06,2013-04-12 20:30:00,
2013-04-12 16:45:00,35.2,33.9,29.85,NE,38,5.0,7.0,95,0.01,,,-99.99,VWS V12.06,2013-04-12 20:45:00,
2013-04-12 17:00:00,35.3,34.0,29.84,East,92,3.0,7.0,95,0.01,,,-99.99,VWS V12.06,2013-04-12 21:00:00,
2013-04-12 17:15:00,35.5,34.5,29.84,ENE,75,0.0,6.0,96,0.01,,,-99.99,VWS V12.06,2013-04-12 21:15:00,
2013-04-12 17:30:00,35.5,34.5,29.83,NE,54,1.0,5.0,96,0.01,,,-99.99,VWS V12.06,2013-04-12 21:30:00,
2013-04-12 17:45:00,35.5,34.5,29.82,NE,34,2.0,12.0,96,0.02,,,-99.99,VWS V12.06,2013-04-12 21:45:00,
2013-04-12 18:00:00,35.6,34.6,29.82,NE,38,2.0,7.0,96,0.02,,,-99.99,VWS V12.06,2013-04-12 22:00:00,
2013-04-12 18:15:00,35.6,34.6,29.82,ENE,76,2.0,6.0,96,0.01,,,-99.99,VWS V12.06,2013-04-12 22:15:00,
2013-04-12 18:30:00,35.6,34.6,29.81,East,97,7.0,9.0,96,0.01,,,-99.99,VWS V12.06,2013-04-12 22:30:00,
2013-04-12 18:45:00,35.8,34.8,29.80,ENE,75,3.0,6.0,96,0.02,,,-99.99,VWS V12.06,2013-04-12 22:45:00,
2013-04-12 19:00:00,35.8,34.8,29.80,East,93,2.0,8.0,96,0.02,,,-99.99,VWS V12.06,2013-04-12 23:00:00,
2013-04-12 19:15:00,35.8,34.8,29.79,ENE,72,0.0,6.0,96,0.01,,,-99.99,VWS V12.06,2013-04-12 23:15:00,
2013-04-12 19:30:00,35.8,34.8,29.80,ENE,68,0.0,2.0,96,0.01,,,-99.99,VWS V12.06,2013-04-12 23:30:00,
2013-04-12 19:45:00,35.6,34.6,29.79,NE,37,5.0,7.0,96,0.01,,,-99.99,VWS V12.06,2013-04-12 23:45:00,
2013-04-12 20:00:00,35.6,34.6,29.79,NE,37,0.0,1.0,96,0.02,,,-99.99,VWS V12.06,2013-04-13 00:00:00,
2013-04-12 20:15:00,35.6,34.6,29.79,ESE,109,0.0,5.0,96,0.01,,,-99.99,VWS V12.06,2013-04-13 00:15:00,
2013-04-12 20:30:00,35.8,34.8,29.79,ENE,59,1.0,5.0,96,0.01,,,-99.99,VWS V12.06,2013-04-13 00:30:00,
2013-04-12 20:45:00,35.8,34.8,29.78,NE,55,1.0,3.0,96,0.01,,,-99.99,VWS V12.06,2013-04-13 00:45:00,
2013-04-12 21:00:00,35.9,34.9,29.78,East,88,1.0,3.0,96,0.00,,,-99.99,VWS V12.06,2013-04-13 01:00:00,
2013-04-12 21:15:00,35.9,34.9,29.78,East,100,0.0,5.0,96,0.00,,,-99.99,VWS V12.06,2013-04-13 01:15:00,
2013-04-12 21:30:00,35.9,35.1,29.78,ENE,58,5.0,5.0,97,0.00,,,-99.99,VWS V12.06,2013-04-13 01:30:00,
2013-04-12 21:45:00,35.9,35.1,29.77,NE,45,1.0,7.0,97,0.00,,,-99.99,VWS V12.06,2013-04-13 01:45:00,
2013-04-12 22:00:00,35.9,35.1,29.77,NE,49,1.0,3.0,97,0.00,,,-99.99,VWS V12.06,2013-04-13 02:00:00,
2013-04-12 22:15:00,35.8,35.0,29.77,SSE,152,1.0,5.0,97,0.00,,,-99.99,VWS V12.06,2013-04-13 02:15:00,
2013-04-12 22:30:00,35.8,35.0,29.75,East,99,6.0,7.0,97,0.00,,,-99.99,VWS V12.06,2013-04-13 02:30:00,
2013-04-12 22:45:00,35.8,35.0,29.75,NNE,28,0.0,6.0,97,0.00,,,-99.99,VWS V12.06,2013-04-13 02:45:00,
2013-04-12 23:00:00,35.8,35.0,29.76,NE,42,0.0,6.0,97,0.00,,,-99.99,VWS V12.06,2013-04-13 03:00:00,
2013-04-12 23:15:00,35.8,35.0,29.75,NNE,24,3.0,3.0,97,0.00,,,-99.99,VWS V12.06,2013-04-13 03:15:00,
2013-04-12 23:30:00,35.8,35.0,29.75,NE,41,1.0,5.0,97,0.00,,,-99.99,VWS V12.06,2013-04-13 03:30:00,
2013-04-12 23:45:00,35.6,34.8,29.75,NNE,18,0.0,3.0,97,0.00,,,-99.99,VWS V12.06,2013-04-13 03:45:00,